sensor_id;sensor_type;location;lat;lon;timestamp;P1;durP1;ratioP1;P2;durP2;ratioP2
24739;SDS011;45234;48.148;17.128;2023-06-14T00:01:58;8.77;;;5.82;;
24739;SDS011;45234;48.148;17.128;2023-06-14T00:04:25;8.85;;;5.95;;
24739;SDS011;45234;48.148;17.128;2023-06-14T00:06:52;7.75;;;6.05;;
24739;SDS011;45234;48.148;17.128;2023-06-14T00:09:19;7.82;;;5.40;;
24739;SDS011;45234;48.148;17.128;2023-06-14T00:11:46;8.98;;;6.05;;
24739;SDS011;45234;48.148;17.128;2023-06-14T00:14:13;7.03;;;6.22;;
24739;SDS011;45234;48.148;17.128;2023-06-14T00:16:40;9.85;;;7.05;;
24739;SDS011;45234;48.148;17.128;2023-06-14T00:19:09;11.38;;;7.38;;
24739;SDS011;45234;48.148;17.128;2023-06-14T00:21:37;10.55;;;6.70;;
24739;SDS011;45234;48.148;17.128;2023-06-14T00:24:04;11.93;;;7.35;;
24739;SDS011;45234;48.148;17.128;2023-06-14T00:26:31;8.70;;;7.45;;
24739;SDS011;45234;48.148;17.128;2023-06-14T00:28:58;12.05;;;7.85;;
24739;SDS011;45234;48.148;17.128;2023-06-14T00:31:25;9.55;;;7.65;;
24739;SDS011;45234;48.148;17.128;2023-06-14T00:33:52;9.40;;;6.82;;
24739;SDS011;45234;48.148;17.128;2023-06-14T00:36:19;13.68;;;7.82;;
24739;SDS011;45234;48.148;17.128;2023-06-14T00:38:46;10.68;;;7.78;;
24739;SDS011;45234;48.148;17.128;2023-06-14T00:41:14;9.02;;;7.22;;
24739;SDS011;45234;48.148;17.128;2023-06-14T00:43:41;11.38;;;8.25;;
24739;SDS011;45234;48.148;17.128;2023-06-14T00:46:08;10.02;;;7.22;;
24739;SDS011;45234;48.148;17.128;2023-06-14T00:48:35;8.60;;;6.47;;
24739;SDS011;45234;48.148;17.128;2023-06-14T00:51:04;9.20;;;7.05;;
24739;SDS011;45234;48.148;17.128;2023-06-14T00:53:32;7.63;;;6.63;;
24739;SDS011;45234;48.148;17.128;2023-06-14T00:56:02;7.78;;;6.57;;
24739;SDS011;45234;48.148;17.128;2023-06-14T00:58:29;10.18;;;6.97;;
24739;SDS011;45234;48.148;17.128;2023-06-14T01:00:58;9.38;;;6.22;;
24739;SDS011;45234;48.148;17.128;2023-06-14T01:03:25;7.15;;;6.43;;
24739;SDS011;45234;48.148;17.128;2023-06-14T01:06:39;6.53;;;5.88;;
24739;SDS011;45234;48.148;17.128;2023-06-14T01:09:01;10.85;;;6.88;;
24739;SDS011;45234;48.148;17.128;2023-06-14T01:11:46;9.85;;;6.60;;
24739;SDS011;45234;48.148;17.128;2023-06-14T01:14:31;7.65;;;6.53;;
24739;SDS011;45234;48.148;17.128;2023-06-14T01:17:01;10.10;;;7.15;;
24739;SDS011;45234;48.148;17.128;2023-06-14T01:19:32;8.02;;;6.05;;
24739;SDS011;45234;48.148;17.128;2023-06-14T01:22:00;11.13;;;6.55;;
24739;SDS011;45234;48.148;17.128;2023-06-14T01:24:28;9.48;;;5.78;;
24739;SDS011;45234;48.148;17.128;2023-06-14T01:26:58;9.77;;;6.35;;
24739;SDS011;45234;48.148;17.128;2023-06-14T01:29:27;9.77;;;5.75;;
24739;SDS011;45234;48.148;17.128;2023-06-14T01:31:59;9.05;;;5.97;;
24739;SDS011;45234;48.148;17.128;2023-06-14T01:34:29;9.45;;;5.50;;
24739;SDS011;45234;48.148;17.128;2023-06-14T01:36:57;6.57;;;5.43;;
24739;SDS011;45234;48.148;17.128;2023-06-14T01:39:26;13.43;;;6.05;;
24739;SDS011;45234;48.148;17.128;2023-06-14T01:41:54;7.53;;;4.80;;
24739;SDS011;45234;48.148;17.128;2023-06-14T01:44:21;7.45;;;4.32;;
24739;SDS011;45234;48.148;17.128;2023-06-14T01:46:49;8.30;;;4.10;;
24739;SDS011;45234;48.148;17.128;2023-06-14T01:49:16;6.03;;;5.00;;
24739;SDS011;45234;48.148;17.128;2023-06-14T01:51:43;5.60;;;4.07;;
24739;SDS011;45234;48.148;17.128;2023-06-14T01:54:10;7.85;;;3.13;;
24739;SDS011;45234;48.148;17.128;2023-06-14T01:56:38;4.93;;;3.80;;
24739;SDS011;45234;48.148;17.128;2023-06-14T01:59:05;6.93;;;3.53;;
24739;SDS011;45234;48.148;17.128;2023-06-14T02:01:32;4.57;;;3.63;;
24739;SDS011;45234;48.148;17.128;2023-06-14T02:04:00;6.88;;;3.47;;
24739;SDS011;45234;48.148;17.128;2023-06-14T02:06:27;5.72;;;3.30;;
24739;SDS011;45234;48.148;17.128;2023-06-14T02:08:54;5.47;;;3.20;;
24739;SDS011;45234;48.148;17.128;2023-06-14T02:11:21;5.20;;;3.25;;
24739;SDS011;45234;48.148;17.128;2023-06-14T02:13:49;6.70;;;3.33;;
24739;SDS011;45234;48.148;17.128;2023-06-14T02:16:16;9.57;;;3.72;;
24739;SDS011;45234;48.148;17.128;2023-06-14T02:18:44;4.90;;;3.22;;
24739;SDS011;45234;48.148;17.128;2023-06-14T02:21:11;4.53;;;3.28;;
24739;SDS011;45234;48.148;17.128;2023-06-14T02:23:38;9.32;;;3.80;;
24739;SDS011;45234;48.148;17.128;2023-06-14T02:26:06;7.05;;;3.90;;
24739;SDS011;45234;48.148;17.128;2023-06-14T02:28:34;6.03;;;3.60;;
24739;SDS011;45234;48.148;17.128;2023-06-14T02:31:01;4.85;;;3.33;;
24739;SDS011;45234;48.148;17.128;2023-06-14T02:33:29;3.45;;;3.15;;
24739;SDS011;45234;48.148;17.128;2023-06-14T02:35:57;6.75;;;3.35;;
24739;SDS011;45234;48.148;17.128;2023-06-14T02:38:24;6.25;;;3.20;;
24739;SDS011;45234;48.148;17.128;2023-06-14T02:40:52;5.60;;;4.45;;
24739;SDS011;45234;48.148;17.128;2023-06-14T02:43:20;7.30;;;4.85;;
24739;SDS011;45234;48.148;17.128;2023-06-14T02:45:47;12.30;;;5.65;;
24739;SDS011;45234;48.148;17.128;2023-06-14T02:48:14;7.90;;;6.00;;
24739;SDS011;45234;48.148;17.128;2023-06-14T02:50:41;9.73;;;6.13;;
24739;SDS011;45234;48.148;17.128;2023-06-14T02:53:08;8.63;;;6.00;;
24739;SDS011;45234;48.148;17.128;2023-06-14T02:55:36;7.65;;;5.80;;
24739;SDS011;45234;48.148;17.128;2023-06-14T02:58:07;6.72;;;5.85;;
24739;SDS011;45234;48.148;17.128;2023-06-14T03:00:34;7.53;;;5.20;;
24739;SDS011;45234;48.148;17.128;2023-06-14T03:03:03;7.07;;;5.93;;
24739;SDS011;45234;48.148;17.128;2023-06-14T03:05:46;7.90;;;5.75;;
24739;SDS011;45234;48.148;17.128;2023-06-14T03:08:18;7.15;;;6.00;;
24739;SDS011;45234;48.148;17.128;2023-06-14T03:10:49;8.20;;;5.95;;
24739;SDS011;45234;48.148;17.128;2023-06-14T03:13:17;8.10;;;6.03;;
24739;SDS011;45234;48.148;17.128;2023-06-14T03:15:49;8.75;;;5.60;;
24739;SDS011;45234;48.148;17.128;2023-06-14T03:18:19;6.22;;;5.25;;
24739;SDS011;45234;48.148;17.128;2023-06-14T03:20:53;7.93;;;5.97;;
24739;SDS011;45234;48.148;17.128;2023-06-14T03:23:24;7.13;;;6.07;;
24739;SDS011;45234;48.148;17.128;2023-06-14T03:25:51;10.40;;;5.95;;
24739;SDS011;45234;48.148;17.128;2023-06-14T03:28:19;9.18;;;5.35;;
24739;SDS011;45234;48.148;17.128;2023-06-14T03:30:49;8.27;;;6.03;;
24739;SDS011;45234;48.148;17.128;2023-06-14T03:33:17;7.82;;;5.22;;
24739;SDS011;45234;48.148;17.128;2023-06-14T03:35:45;7.97;;;5.95;;
24739;SDS011;45234;48.148;17.128;2023-06-14T03:38:13;8.60;;;6.40;;
24739;SDS011;45234;48.148;17.128;2023-06-14T03:40:40;6.40;;;5.53;;
24739;SDS011;45234;48.148;17.128;2023-06-14T03:43:07;7.45;;;4.60;;
24739;SDS011;45234;48.148;17.128;2023-06-14T03:45:34;5.47;;;3.70;;
24739;SDS011;45234;48.148;17.128;2023-06-14T03:48:01;6.07;;;3.70;;
24739;SDS011;45234;48.148;17.128;2023-06-14T03:50:30;5.90;;;3.97;;
24739;SDS011;45234;48.148;17.128;2023-06-14T03:52:58;5.28;;;3.63;;
24739;SDS011;45234;48.148;17.128;2023-06-14T03:55:27;5.20;;;3.50;;
24739;SDS011;45234;48.148;17.128;2023-06-14T03:58:01;3.63;;;3.08;;
24739;SDS011;45234;48.148;17.128;2023-06-14T04:00:28;4.88;;;3.05;;
24739;SDS011;45234;48.148;17.128;2023-06-14T04:02:56;3.30;;;2.58;;
24739;SDS011;45234;48.148;17.128;2023-06-14T04:05:24;3.65;;;2.88;;
24739;SDS011;45234;48.148;17.128;2023-06-14T04:07:54;4.55;;;2.28;;
24739;SDS011;45234;48.148;17.128;2023-06-14T04:10:21;4.28;;;3.13;;
24739;SDS011;45234;48.148;17.128;2023-06-14T04:12:49;3.80;;;2.60;;
24739;SDS011;45234;48.148;17.128;2023-06-14T04:15:17;5.80;;;3.15;;
24739;SDS011;45234;48.148;17.128;2023-06-14T04:17:50;3.80;;;2.95;;
24739;SDS011;45234;48.148;17.128;2023-06-14T04:20:19;3.08;;;2.67;;
24739;SDS011;45234;48.148;17.128;2023-06-14T04:22:48;4.85;;;3.08;;
24739;SDS011;45234;48.148;17.128;2023-06-14T04:25:15;2.53;;;2.17;;
24739;SDS011;45234;48.148;17.128;2023-06-14T04:27:50;4.55;;;2.50;;
24739;SDS011;45234;48.148;17.128;2023-06-14T04:30:21;4.60;;;2.63;;
24739;SDS011;45234;48.148;17.128;2023-06-14T04:32:53;4.47;;;3.20;;
24739;SDS011;45234;48.148;17.128;2023-06-14T04:35:23;6.70;;;2.67;;
24739;SDS011;45234;48.148;17.128;2023-06-14T04:37:53;4.55;;;2.60;;
24739;SDS011;45234;48.148;17.128;2023-06-14T04:40:21;3.20;;;2.90;;
24739;SDS011;45234;48.148;17.128;2023-06-14T04:42:48;3.22;;;2.55;;
24739;SDS011;45234;48.148;17.128;2023-06-14T04:45:18;5.30;;;2.72;;
24739;SDS011;45234;48.148;17.128;2023-06-14T04:47:45;3.83;;;2.33;;
24739;SDS011;45234;48.148;17.128;2023-06-14T04:50:13;4.75;;;2.70;;
24739;SDS011;45234;48.148;17.128;2023-06-14T04:52:44;3.30;;;2.65;;
24739;SDS011;45234;48.148;17.128;2023-06-14T04:55:11;6.35;;;2.50;;
24739;SDS011;45234;48.148;17.128;2023-06-14T04:57:40;7.75;;;2.60;;
24739;SDS011;45234;48.148;17.128;2023-06-14T05:00:10;7.53;;;3.80;;
24739;SDS011;45234;48.148;17.128;2023-06-14T05:02:38;6.57;;;4.00;;
24739;SDS011;45234;48.148;17.128;2023-06-14T05:05:07;7.50;;;4.65;;
24739;SDS011;45234;48.148;17.128;2023-06-14T05:07:34;7.75;;;5.10;;
24739;SDS011;45234;48.148;17.128;2023-06-14T05:10:05;7.60;;;4.57;;
24739;SDS011;45234;48.148;17.128;2023-06-14T05:12:33;7.30;;;5.10;;
24739;SDS011;45234;48.148;17.128;2023-06-14T05:15:02;8.45;;;5.30;;
24739;SDS011;45234;48.148;17.128;2023-06-14T05:17:30;4.47;;;3.70;;
24739;SDS011;45234;48.148;17.128;2023-06-14T05:19:57;10.63;;;4.70;;
24739;SDS011;45234;48.148;17.128;2023-06-14T05:22:24;8.73;;;3.08;;
24739;SDS011;45234;48.148;17.128;2023-06-14T05:24:51;5.07;;;2.72;;
24739;SDS011;45234;48.148;17.128;2023-06-14T05:27:18;4.82;;;2.53;;
24739;SDS011;45234;48.148;17.128;2023-06-14T05:29:46;3.50;;;3.10;;
24739;SDS011;45234;48.148;17.128;2023-06-14T05:32:15;3.78;;;2.92;;
24739;SDS011;45234;48.148;17.128;2023-06-14T05:34:42;5.43;;;2.97;;
24739;SDS011;45234;48.148;17.128;2023-06-14T05:37:09;2.83;;;2.58;;
24739;SDS011;45234;48.148;17.128;2023-06-14T05:39:42;3.35;;;2.75;;
24739;SDS011;45234;48.148;17.128;2023-06-14T05:42:10;5.68;;;2.88;;
24739;SDS011;45234;48.148;17.128;2023-06-14T05:44:49;4.35;;;3.10;;
24739;SDS011;45234;48.148;17.128;2023-06-14T05:47:16;6.35;;;3.55;;
24739;SDS011;45234;48.148;17.128;2023-06-14T05:49:44;5.15;;;3.92;;
24739;SDS011;45234;48.148;17.128;2023-06-14T05:52:12;5.50;;;3.85;;
24739;SDS011;45234;48.148;17.128;2023-06-14T05:54:54;5.85;;;4.03;;
24739;SDS011;45234;48.148;17.128;2023-06-14T05:57:21;7.38;;;3.58;;
24739;SDS011;45234;48.148;17.128;2023-06-14T05:59:48;3.95;;;3.38;;
24739;SDS011;45234;48.148;17.128;2023-06-14T06:02:16;8.30;;;3.53;;
24739;SDS011;45234;48.148;17.128;2023-06-14T06:04:43;3.95;;;3.28;;
24739;SDS011;45234;48.148;17.128;2023-06-14T06:07:10;5.95;;;3.97;;
24739;SDS011;45234;48.148;17.128;2023-06-14T06:09:37;4.97;;;3.38;;
24739;SDS011;45234;48.148;17.128;2023-06-14T06:12:05;5.10;;;3.47;;
24739;SDS011;45234;48.148;17.128;2023-06-14T06:14:33;5.32;;;3.35;;
24739;SDS011;45234;48.148;17.128;2023-06-14T06:17:00;6.05;;;3.50;;
24739;SDS011;45234;48.148;17.128;2023-06-14T06:19:27;5.35;;;3.10;;
24739;SDS011;45234;48.148;17.128;2023-06-14T06:21:55;6.57;;;3.30;;
24739;SDS011;45234;48.148;17.128;2023-06-14T06:24:22;6.53;;;3.10;;
24739;SDS011;45234;48.148;17.128;2023-06-14T06:26:50;3.63;;;3.33;;
24739;SDS011;45234;48.148;17.128;2023-06-14T06:29:18;5.18;;;3.25;;
24739;SDS011;45234;48.148;17.128;2023-06-14T06:31:45;8.02;;;3.70;;
24739;SDS011;45234;48.148;17.128;2023-06-14T06:34:12;4.45;;;3.58;;
24739;SDS011;45234;48.148;17.128;2023-06-14T06:36:39;4.63;;;2.85;;
24739;SDS011;45234;48.148;17.128;2023-06-14T06:39:06;3.55;;;3.25;;
24739;SDS011;45234;48.148;17.128;2023-06-14T06:41:37;3.72;;;3.42;;
24739;SDS011;45234;48.148;17.128;2023-06-14T06:44:06;8.82;;;4.18;;
24739;SDS011;45234;48.148;17.128;2023-06-14T06:46:34;4.97;;;3.88;;
24739;SDS011;45234;48.148;17.128;2023-06-14T06:49:06;5.43;;;3.22;;
24739;SDS011;45234;48.148;17.128;2023-06-14T06:51:34;6.05;;;3.67;;
24739;SDS011;45234;48.148;17.128;2023-06-14T06:54:02;8.45;;;4.72;;
24739;SDS011;45234;48.148;17.128;2023-06-14T06:56:31;5.43;;;4.45;;
24739;SDS011;45234;48.148;17.128;2023-06-14T06:58:59;4.88;;;4.10;;
24739;SDS011;45234;48.148;17.128;2023-06-14T07:01:26;4.93;;;3.95;;
24739;SDS011;45234;48.148;17.128;2023-06-14T07:03:55;8.45;;;4.53;;
24739;SDS011;45234;48.148;17.128;2023-06-14T07:06:22;7.00;;;4.20;;
24739;SDS011;45234;48.148;17.128;2023-06-14T07:08:53;8.73;;;4.13;;
24739;SDS011;45234;48.148;17.128;2023-06-14T07:11:20;5.90;;;4.95;;
24739;SDS011;45234;48.148;17.128;2023-06-14T07:13:47;6.80;;;5.55;;
24739;SDS011;45234;48.148;17.128;2023-06-14T07:16:18;5.50;;;5.00;;
24739;SDS011;45234;48.148;17.128;2023-06-14T07:18:46;7.93;;;7.05;;
24739;SDS011;45234;48.148;17.128;2023-06-14T07:21:13;7.45;;;5.60;;
24739;SDS011;45234;48.148;17.128;2023-06-14T07:23:42;7.47;;;5.70;;
24739;SDS011;45234;48.148;17.128;2023-06-14T07:26:11;6.55;;;5.82;;
24739;SDS011;45234;48.148;17.128;2023-06-14T07:28:39;7.68;;;6.03;;
24739;SDS011;45234;48.148;17.128;2023-06-14T07:31:06;8.80;;;6.00;;
24739;SDS011;45234;48.148;17.128;2023-06-14T07:33:33;6.82;;;6.07;;
24739;SDS011;45234;48.148;17.128;2023-06-14T07:36:02;5.40;;;4.90;;
24739;SDS011;45234;48.148;17.128;2023-06-14T07:38:29;6.60;;;5.60;;
24739;SDS011;45234;48.148;17.128;2023-06-14T07:40:58;6.22;;;5.53;;
24739;SDS011;45234;48.148;17.128;2023-06-14T07:43:26;7.38;;;6.35;;
24739;SDS011;45234;48.148;17.128;2023-06-14T07:45:54;6.28;;;5.18;;
24739;SDS011;45234;48.148;17.128;2023-06-14T07:48:32;9.75;;;5.13;;
24739;SDS011;45234;48.148;17.128;2023-06-14T07:51:00;7.40;;;5.25;;
24739;SDS011;45234;48.148;17.128;2023-06-14T07:53:28;5.82;;;4.60;;
24739;SDS011;45234;48.148;17.128;2023-06-14T07:55:56;7.00;;;4.63;;
24739;SDS011;45234;48.148;17.128;2023-06-14T07:58:23;6.28;;;4.38;;
24739;SDS011;45234;48.148;17.128;2023-06-14T08:00:50;4.57;;;4.10;;
24739;SDS011;45234;48.148;17.128;2023-06-14T08:03:17;5.30;;;4.63;;
24739;SDS011;45234;48.148;17.128;2023-06-14T08:05:47;4.85;;;3.72;;
24739;SDS011;45234;48.148;17.128;2023-06-14T08:08:15;5.63;;;5.05;;
24739;SDS011;45234;48.148;17.128;2023-06-14T08:10:42;7.72;;;4.03;;
24739;SDS011;45234;48.148;17.128;2023-06-14T08:13:09;4.40;;;4.00;;
24739;SDS011;45234;48.148;17.128;2023-06-14T08:15:36;6.55;;;3.70;;
24739;SDS011;45234;48.148;17.128;2023-06-14T08:18:04;5.28;;;4.25;;
24739;SDS011;45234;48.148;17.128;2023-06-14T08:20:31;4.82;;;3.55;;
24739;SDS011;45234;48.148;17.128;2023-06-14T08:22:59;3.60;;;3.30;;
24739;SDS011;45234;48.148;17.128;2023-06-14T08:25:27;4.13;;;3.83;;
24739;SDS011;45234;48.148;17.128;2023-06-14T08:27:54;5.20;;;4.15;;
24739;SDS011;45234;48.148;17.128;2023-06-14T08:30:21;6.38;;;4.88;;
24739;SDS011;45234;48.148;17.128;2023-06-14T08:32:48;5.25;;;4.75;;
24739;SDS011;45234;48.148;17.128;2023-06-14T08:35:27;5.90;;;4.20;;
24739;SDS011;45234;48.148;17.128;2023-06-14T08:37:54;5.47;;;4.13;;
24739;SDS011;45234;48.148;17.128;2023-06-14T08:40:22;20.77;;;17.95;;
24739;SDS011;45234;48.148;17.128;2023-06-14T08:42:50;4.57;;;4.00;;
24739;SDS011;45234;48.148;17.128;2023-06-14T08:45:19;8.07;;;4.38;;
24739;SDS011;45234;48.148;17.128;2023-06-14T08:47:50;10.32;;;4.20;;
24739;SDS011;45234;48.148;17.128;2023-06-14T08:50:25;4.90;;;4.07;;
24739;SDS011;45234;48.148;17.128;2023-06-14T08:52:57;4.78;;;3.53;;
24739;SDS011;45234;48.148;17.128;2023-06-14T08:55:30;6.57;;;4.53;;
24739;SDS011;45234;48.148;17.128;2023-06-14T08:58:03;8.43;;;4.13;;
24739;SDS011;45234;48.148;17.128;2023-06-14T09:00:32;6.07;;;5.47;;
24739;SDS011;45234;48.148;17.128;2023-06-14T09:03:00;6.57;;;4.60;;
24739;SDS011;45234;48.148;17.128;2023-06-14T09:05:29;7.78;;;3.97;;
24739;SDS011;45234;48.148;17.128;2023-06-14T09:07:58;5.30;;;3.28;;
24739;SDS011;45234;48.148;17.128;2023-06-14T09:10:31;6.15;;;4.22;;
24739;SDS011;45234;48.148;17.128;2023-06-14T09:13:01;5.75;;;4.07;;
24739;SDS011;45234;48.148;17.128;2023-06-14T09:15:30;5.50;;;3.47;;
24739;SDS011;45234;48.148;17.128;2023-06-14T09:17:58;5.13;;;3.42;;
24739;SDS011;45234;48.148;17.128;2023-06-14T09:20:29;5.05;;;3.17;;
24739;SDS011;45234;48.148;17.128;2023-06-14T09:22:56;5.13;;;3.47;;
24739;SDS011;45234;48.148;17.128;2023-06-14T09:25:24;6.55;;;3.47;;
24739;SDS011;45234;48.148;17.128;2023-06-14T09:27:56;6.00;;;4.45;;
24739;SDS011;45234;48.148;17.128;2023-06-14T09:30:23;5.80;;;4.15;;
24739;SDS011;45234;48.148;17.128;2023-06-14T09:32:50;4.90;;;3.42;;
24739;SDS011;45234;48.148;17.128;2023-06-14T09:35:17;5.88;;;4.07;;
24739;SDS011;45234;48.148;17.128;2023-06-14T09:37:49;7.65;;;3.30;;
24739;SDS011;45234;48.148;17.128;2023-06-14T09:40:23;6.07;;;3.22;;
24739;SDS011;45234;48.148;17.128;2023-06-14T09:42:50;4.93;;;3.55;;
24739;SDS011;45234;48.148;17.128;2023-06-14T09:45:18;5.47;;;2.95;;
24739;SDS011;45234;48.148;17.128;2023-06-14T09:47:51;4.43;;;3.20;;
24739;SDS011;45234;48.148;17.128;2023-06-14T09:50:32;5.88;;;3.20;;
24739;SDS011;45234;48.148;17.128;2023-06-14T09:53:06;5.32;;;3.33;;
24739;SDS011;45234;48.148;17.128;2023-06-14T09:55:36;5.65;;;3.15;;
24739;SDS011;45234;48.148;17.128;2023-06-14T09:58:06;5.15;;;3.08;;
24739;SDS011;45234;48.148;17.128;2023-06-14T10:00:36;3.50;;;2.92;;
24739;SDS011;45234;48.148;17.128;2023-06-14T10:03:14;4.80;;;3.10;;
24739;SDS011;45234;48.148;17.128;2023-06-14T10:05:48;3.83;;;2.88;;
24739;SDS011;45234;48.148;17.128;2023-06-14T10:08:18;4.38;;;3.25;;
24739;SDS011;45234;48.148;17.128;2023-06-14T10:10:51;4.22;;;3.40;;
24739;SDS011;45234;48.148;17.128;2023-06-14T10:13:20;5.60;;;3.10;;
24739;SDS011;45234;48.148;17.128;2023-06-14T10:23:42;4.28;;;3.10;;
24739;SDS011;45234;48.148;17.128;2023-06-14T10:26:22;5.90;;;3.05;;
24739;SDS011;45234;48.148;17.128;2023-06-14T10:28:56;7.32;;;3.22;;
24739;SDS011;45234;48.148;17.128;2023-06-14T10:39:46;7.00;;;3.35;;
24739;SDS011;45234;48.148;17.128;2023-06-14T10:42:14;6.43;;;3.42;;
24739;SDS011;45234;48.148;17.128;2023-06-14T10:44:51;4.40;;;3.40;;
24739;SDS011;45234;48.148;17.128;2023-06-14T10:47:27;4.38;;;3.00;;
24739;SDS011;45234;48.148;17.128;2023-06-14T10:50:09;3.38;;;3.05;;
24739;SDS011;45234;48.148;17.128;2023-06-14T10:52:41;9.40;;;3.08;;
24739;SDS011;45234;48.148;17.128;2023-06-14T10:55:15;3.88;;;3.40;;
24739;SDS011;45234;48.148;17.128;2023-06-14T11:00:19;5.50;;;3.42;;
24739;SDS011;45234;48.148;17.128;2023-06-14T11:05:27;4.28;;;3.65;;
24739;SDS011;45234;48.148;17.128;2023-06-14T11:10:40;6.20;;;4.18;;
24739;SDS011;45234;48.148;17.128;2023-06-14T11:13:09;6.28;;;3.83;;
24739;SDS011;45234;48.148;17.128;2023-06-14T11:15:36;6.90;;;3.75;;
24739;SDS011;45234;48.148;17.128;2023-06-14T11:18:05;5.68;;;3.28;;
24739;SDS011;45234;48.148;17.128;2023-06-14T11:20:40;5.30;;;3.47;;
24739;SDS011;45234;48.148;17.128;2023-06-14T11:23:07;5.03;;;3.47;;
24739;SDS011;45234;48.148;17.128;2023-06-14T11:25:34;5.95;;;3.28;;
24739;SDS011;45234;48.148;17.128;2023-06-14T11:28:01;4.20;;;3.63;;
24739;SDS011;45234;48.148;17.128;2023-06-14T11:30:28;4.82;;;3.67;;
24739;SDS011;45234;48.148;17.128;2023-06-14T11:32:55;3.88;;;3.50;;
24739;SDS011;45234;48.148;17.128;2023-06-14T11:35:24;5.82;;;3.80;;
24739;SDS011;45234;48.148;17.128;2023-06-14T11:37:55;4.25;;;3.40;;
24739;SDS011;45234;48.148;17.128;2023-06-14T11:40:27;8.57;;;3.75;;
24739;SDS011;45234;48.148;17.128;2023-06-14T11:42:57;7.78;;;4.35;;
24739;SDS011;45234;48.148;17.128;2023-06-14T11:45:27;4.72;;;3.00;;
24739;SDS011;45234;48.148;17.128;2023-06-14T11:47:56;4.97;;;3.63;;
24739;SDS011;45234;48.148;17.128;2023-06-14T11:50:26;6.15;;;3.88;;
24739;SDS011;45234;48.148;17.128;2023-06-14T11:52:54;5.60;;;3.70;;
24739;SDS011;45234;48.148;17.128;2023-06-14T11:55:23;4.93;;;3.97;;
24739;SDS011;45234;48.148;17.128;2023-06-14T11:57:57;4.03;;;2.97;;
24739;SDS011;45234;48.148;17.128;2023-06-14T12:00:24;5.72;;;3.90;;
24739;SDS011;45234;48.148;17.128;2023-06-14T12:02:52;4.65;;;3.90;;
24739;SDS011;45234;48.148;17.128;2023-06-14T12:05:22;6.03;;;4.22;;
24739;SDS011;45234;48.148;17.128;2023-06-14T12:07:50;5.10;;;3.80;;
24739;SDS011;45234;48.148;17.128;2023-06-14T12:10:26;5.47;;;3.58;;
24739;SDS011;45234;48.148;17.128;2023-06-14T12:12:56;6.13;;;4.40;;
24739;SDS011;45234;48.148;17.128;2023-06-14T12:15:27;6.47;;;3.67;;
24739;SDS011;45234;48.148;17.128;2023-06-14T12:17:55;4.85;;;3.22;;
24739;SDS011;45234;48.148;17.128;2023-06-14T12:20:28;5.07;;;3.25;;
24739;SDS011;45234;48.148;17.128;2023-06-14T12:22:58;4.90;;;3.55;;
24739;SDS011;45234;48.148;17.128;2023-06-14T12:25:30;5.97;;;3.45;;
24739;SDS011;45234;48.148;17.128;2023-06-14T12:27:58;5.07;;;3.28;;
24739;SDS011;45234;48.148;17.128;2023-06-14T12:30:29;7.60;;;3.60;;
24739;SDS011;45234;48.148;17.128;2023-06-14T12:33:00;8.10;;;3.67;;
24739;SDS011;45234;48.148;17.128;2023-06-14T12:35:28;4.40;;;3.38;;
24739;SDS011;45234;48.148;17.128;2023-06-14T12:37:55;8.40;;;3.80;;
24739;SDS011;45234;48.148;17.128;2023-06-14T12:40:22;6.70;;;4.28;;
24739;SDS011;45234;48.148;17.128;2023-06-14T12:42:50;8.18;;;3.80;;
24739;SDS011;45234;48.148;17.128;2023-06-14T12:45:17;5.03;;;3.72;;
24739;SDS011;45234;48.148;17.128;2023-06-14T12:47:47;8.23;;;3.80;;
24739;SDS011;45234;48.148;17.128;2023-06-14T12:50:14;8.73;;;3.40;;
24739;SDS011;45234;48.148;17.128;2023-06-14T12:52:44;9.35;;;3.90;;
24739;SDS011;45234;48.148;17.128;2023-06-14T12:55:11;4.78;;;3.60;;
24739;SDS011;45234;48.148;17.128;2023-06-14T12:57:38;4.55;;;3.30;;
24739;SDS011;45234;48.148;17.128;2023-06-14T13:00:05;9.27;;;3.50;;
24739;SDS011;45234;48.148;17.128;2023-06-14T13:02:33;5.35;;;3.08;;
24739;SDS011;45234;48.148;17.128;2023-06-14T13:05:01;7.07;;;3.53;;
24739;SDS011;45234;48.148;17.128;2023-06-14T13:07:30;9.35;;;3.60;;
24739;SDS011;45234;48.148;17.128;2023-06-14T13:09:57;8.40;;;4.13;;
24739;SDS011;45234;48.148;17.128;2023-06-14T13:12:24;9.25;;;3.88;;
24739;SDS011;45234;48.148;17.128;2023-06-14T13:14:51;7.63;;;3.72;;
24739;SDS011;45234;48.148;17.128;2023-06-14T13:17:18;6.30;;;3.40;;
24739;SDS011;45234;48.148;17.128;2023-06-14T13:19:46;4.47;;;3.92;;
24739;SDS011;45234;48.148;17.128;2023-06-14T13:22:15;7.43;;;3.85;;
24739;SDS011;45234;48.148;17.128;2023-06-14T13:24:42;15.10;;;4.05;;
24739;SDS011;45234;48.148;17.128;2023-06-14T13:27:11;4.43;;;3.50;;
24739;SDS011;45234;48.148;17.128;2023-06-14T13:29:40;9.48;;;3.72;;
24739;SDS011;45234;48.148;17.128;2023-06-14T13:32:07;5.90;;;3.83;;
24739;SDS011;45234;48.148;17.128;2023-06-14T13:34:34;6.47;;;3.95;;
24739;SDS011;45234;48.148;17.128;2023-06-14T13:37:01;5.15;;;3.67;;
24739;SDS011;45234;48.148;17.128;2023-06-14T13:39:28;9.13;;;4.03;;
24739;SDS011;45234;48.148;17.128;2023-06-14T13:41:56;4.30;;;3.58;;
24739;SDS011;45234;48.148;17.128;2023-06-14T13:44:23;6.18;;;4.13;;
24739;SDS011;45234;48.148;17.128;2023-06-14T13:46:50;4.10;;;3.13;;
24739;SDS011;45234;48.148;17.128;2023-06-14T13:49:21;5.53;;;3.70;;
24739;SDS011;45234;48.148;17.128;2023-06-14T13:51:47;4.70;;;3.70;;
24739;SDS011;45234;48.148;17.128;2023-06-14T13:54:14;4.30;;;3.47;;
24739;SDS011;45234;48.148;17.128;2023-06-14T13:56:45;6.18;;;3.40;;
24739;SDS011;45234;48.148;17.128;2023-06-14T13:59:12;6.30;;;4.10;;
24739;SDS011;45234;48.148;17.128;2023-06-14T14:01:39;5.30;;;3.83;;
24739;SDS011;45234;48.148;17.128;2023-06-14T14:04:06;6.05;;;4.68;;
24739;SDS011;45234;48.148;17.128;2023-06-14T14:06:34;6.78;;;4.05;;
24739;SDS011;45234;48.148;17.128;2023-06-14T14:09:01;9.52;;;4.00;;
24739;SDS011;45234;48.148;17.128;2023-06-14T14:11:28;6.35;;;3.85;;
24739;SDS011;45234;48.148;17.128;2023-06-14T14:13:58;7.40;;;3.83;;
24739;SDS011;45234;48.148;17.128;2023-06-14T14:16:25;7.45;;;4.00;;
24739;SDS011;45234;48.148;17.128;2023-06-14T14:18:52;4.90;;;4.40;;
24739;SDS011;45234;48.148;17.128;2023-06-14T14:21:20;8.20;;;4.60;;
24739;SDS011;45234;48.148;17.128;2023-06-14T14:23:47;7.30;;;4.47;;
24739;SDS011;45234;48.148;17.128;2023-06-14T14:26:15;4.93;;;4.20;;
24739;SDS011;45234;48.148;17.128;2023-06-14T14:28:43;7.55;;;4.07;;
24739;SDS011;45234;48.148;17.128;2023-06-14T14:31:11;11.60;;;5.63;;
24739;SDS011;45234;48.148;17.128;2023-06-14T14:33:38;5.60;;;4.20;;
24739;SDS011;45234;48.148;17.128;2023-06-14T14:36:05;10.93;;;3.90;;
24739;SDS011;45234;48.148;17.128;2023-06-14T14:38:33;5.85;;;4.15;;
24739;SDS011;45234;48.148;17.128;2023-06-14T14:41:00;4.95;;;3.88;;
24739;SDS011;45234;48.148;17.128;2023-06-14T14:43:27;8.85;;;3.83;;
24739;SDS011;45234;48.148;17.128;2023-06-14T14:45:57;8.00;;;3.65;;
24739;SDS011;45234;48.148;17.128;2023-06-14T14:48:23;5.07;;;3.20;;
24739;SDS011;45234;48.148;17.128;2023-06-14T14:50:52;5.22;;;3.50;;
24739;SDS011;45234;48.148;17.128;2023-06-14T14:53:20;9.60;;;3.40;;
24739;SDS011;45234;48.148;17.128;2023-06-14T14:55:48;6.80;;;3.17;;
24739;SDS011;45234;48.148;17.128;2023-06-14T14:58:15;6.15;;;3.20;;
24739;SDS011;45234;48.148;17.128;2023-06-14T15:00:45;4.80;;;3.47;;
24739;SDS011;45234;48.148;17.128;2023-06-14T15:03:13;5.32;;;2.88;;
24739;SDS011;45234;48.148;17.128;2023-06-14T15:05:40;6.43;;;3.40;;
24739;SDS011;45234;48.148;17.128;2023-06-14T15:08:07;5.10;;;3.10;;